Time;durP1;ratioP1;P1;durP2;ratioP2;P2;SDS_P1;SDS_P2;PMS_P1;PMS_P2;Temp;Humidity;BMP_temperature;BMP_pressure;BME280_temperature;BME280_humidity;BME280_pressure;Samples;Min_cycle;Max_cycle;Signal;HPM_P1;HPM_P2
2021/07/13 00:00:14;;;;;;;;;6.75;6.50;;;;;20.20;66.45;100760.06;5037497;28;45459;-86
2021/07/13 00:02:40;;;;;;;;;7.50;7.50;;;;;20.21;66.02;100770.59;5021449;28;45659;-85
2021/07/13 00:05:12;;;;;;;;;7.75;7.50;;;;;20.10;65.85;100753.88;5036854;28;46972;-86
2021/07/13 00:07:38;;;;;;;;;5.75;5.75;;;;;20.00;66.17;100758.25;5039423;28;45779;-87
2021/07/13 00:10:06;;;;;;;;;7.50;6.25;;;;;19.96;66.06;100769.59;5045993;28;45351;-86
2021/07/13 00:12:32;;;;;;;;;8.50;6.75;;;;;19.95;67.15;100770.47;5028627;28;45202;-86
2021/07/13 00:14:59;;;;;;;;;9.00;6.00;;;;;19.93;66.58;100767.84;5041119;28;45474;-85
2021/07/13 00:17:24;;;;;;;;;7.75;6.50;;;;;19.92;66.24;100754.72;5039808;28;45373;-86
2021/07/13 00:19:50;;;;;;;;;8.00;7.00;;;;;19.88;66.89;100748.53;5023101;28;45408;-86
2021/07/13 00:22:15;;;;;;;;;7.50;5.00;;;;;19.90;66.98;100740.69;5039721;28;45548;-86
2021/07/13 00:24:41;;;;;;;;;7.75;7.00;;;;;19.92;67.14;100739.81;5019618;28;47552;-85
2021/07/13 00:27:07;;;;;;;;;5.50;5.50;;;;;19.90;66.99;100744.16;5037679;28;45313;-86
2021/07/13 00:29:33;;;;;;;;;6.50;6.25;;;;;19.98;67.04;100761.75;5038130;28;45319;-86
2021/07/13 00:31:58;;;;;;;;;7.00;6.50;;;;;19.93;66.69;100757.34;5038600;28;45332;-85
2021/07/13 00:34:24;;;;;;;;;6.75;6.75;;;;;19.95;66.87;100754.69;5035316;28;47398;-85
2021/07/13 00:36:49;;;;;;;;;8.00;8.00;;;;;19.93;66.33;100749.44;5037404;28;45344;-85
2021/07/13 00:39:15;;;;;;;;;8.50;7.50;;;;;19.95;66.25;100747.72;5038169;28;45179;-85
2021/07/13 00:41:41;;;;;;;;;9.50;9.00;;;;;19.99;66.36;100745.06;5036807;28;45605;-84
2021/07/13 00:44:06;;;;;;;;;10.75;9.75;;;;;19.97;66.54;100741.59;5037787;28;45863;-84
2021/07/13 00:46:45;;;;;;;;;9.25;9.25;;;;;19.97;66.15;100733.72;5039242;28;45344;-85
2021/07/13 00:49:13;;;;;;;;;8.00;7.25;;;;;19.97;66.82;100726.69;5045784;28;45320;-84
2021/07/13 00:51:39;;;;;;;;;8.75;8.75;;;;;20.03;66.46;100729.31;5044545;28;45478;-85
2021/07/13 00:54:06;;;;;;;;;12.50;8.50;;;;;20.00;66.58;100716.19;5041467;28;45592;-85
2021/07/13 00:56:36;;;;;;;;;9.75;8.25;;;;;20.03;66.14;100710.06;5019680;28;45356;-85
2021/07/13 00:59:01;;;;;;;;;10.75;10.00;;;;;20.00;65.95;100724.09;5037397;28;45443;-84
2021/07/13 01:01:27;;;;;;;;;14.50;9.25;;;;;19.90;66.79;100712.63;5037966;28;45621;-84
2021/07/13 01:03:53;;;;;;;;;12.25;9.50;;;;;19.92;66.69;100716.16;5037639;28;46198;-84
2021/07/13 01:06:21;;;;;;;;;10.25;9.75;;;;;19.90;66.69;100720.53;5038355;28;45934;-84
2021/07/13 01:09:09;;;;;;;;;13.25;10.25;;;;;19.87;66.49;100717.88;5037708;28;45343;-84
2021/07/13 01:11:46;;;;;;;;;12.25;10.75;;;;;19.86;66.69;100723.13;5038107;28;45428;-84
2021/07/13 01:14:42;;;;;;;;;14.75;12.00;;;;;19.87;66.39;100723.13;5037750;28;46359;-84
2021/07/13 01:17:13;;;;;;;;;14.00;12.00;;;;;19.86;66.58;100710.00;5042718;28;45659;-84
2021/07/13 01:20:04;;;;;;;;;15.00;14.25;;;;;19.84;66.92;100706.44;5026094;28;45412;-84
2021/07/13 01:22:43;;;;;;;;;14.50;11.25;;;;;19.77;66.30;100703.78;5038877;28;45349;-84
2021/07/13 01:25:30;;;;;;;;;10.00;8.25;;;;;19.71;67.08;100709.00;5018962;28;47840;-84
2021/07/13 01:27:58;;;;;;;;;11.25;11.25;;;;;19.75;66.87;100721.28;5038621;28;45336;-84
2021/07/13 01:30:28;;;;;;;;;15.50;14.75;;;;;19.76;67.06;100717.78;5042706;28;45247;-84
2021/07/13 01:33:05;;;;;;;;;14.00;11.50;;;;;19.68;66.39;100701.13;5042630;28;45357;-84
2021/07/13 01:35:43;;;;;;;;;11.75;10.50;;;;;19.68;67.16;100690.63;5040432;28;45498;-84
2021/07/13 01:38:09;;;;;;;;;18.50;15.00;;;;;19.66;66.98;100694.97;5019094;28;45706;-84
2021/07/13 01:40:36;;;;;;;;;11.75;11.25;;;;;19.64;67.11;100707.22;5038149;28;45245;-84
2021/07/13 01:43:04;;;;;;;;;11.75;10.50;;;;;19.63;66.96;100698.47;5042361;28;45232;-83
2021/07/13 01:45:30;;;;;;;;;13.75;11.25;;;;;19.61;67.03;100715.97;5040306;28;45383;-84
2021/07/13 01:47:57;;;;;;;;;14.75;12.25;;;;;19.56;66.52;100712.41;5036526;28;45796;-85
2021/07/13 01:50:23;;;;;;;;;10.75;8.50;;;;;19.55;67.01;100718.53;5036670;28;45427;-84
2021/07/13 01:52:50;;;;;;;;;14.50;13.00;;;;;19.56;66.60;100729.94;5037021;28;45795;-85
2021/07/13 01:55:16;;;;;;;;;13.25;12.00;;;;;19.54;66.96;100729.03;5035252;28;46839;-84
2021/07/13 01:57:43;;;;;;;;;13.75;13.25;;;;;19.57;66.74;100731.69;5036652;28;45340;-85
2021/07/13 02:00:10;;;;;;;;;14.00;14.00;;;;;19.58;66.64;100725.59;5036285;28;45437;-85
2021/07/13 02:02:38;;;;;;;;;12.25;11.25;;;;;19.57;67.04;100723.81;5018772;28;45525;-85
2021/07/13 02:05:06;;;;;;;;;11.50;10.00;;;;;19.62;66.41;100714.19;5035936;28;46307;-85
2021/07/13 02:07:36;;;;;;;;;13.75;11.75;;;;;19.64;66.64;100705.50;5038733;28;45797;-85
2021/07/13 02:10:05;;;;;;;;;12.50;10.75;;;;;19.63;67.08;100713.34;5044831;28;45316;-83
2021/07/13 02:12:33;;;;;;;;;14.25;14.00;;;;;19.63;66.46;100716.84;5042305;28;45336;-85
2021/07/13 02:14:58;;;;;;;;;13.75;12.75;;;;;19.60;67.19;100714.22;5038949;28;46893;-85
2021/07/13 02:17:30;;;;;;;;;13.00;10.25;;;;;19.57;66.64;100706.28;5036251;28;45314;-85
2021/07/13 02:19:58;;;;;;;;;11.25;10.50;;;;;19.62;66.36;100722.09;5036256;28;45448;-84
2021/07/13 02:22:24;;;;;;;;;11.50;11.50;;;;;19.58;66.28;100717.69;5036345;28;45445;-84
2021/07/13 02:24:49;;;;;;;;;10.50;9.75;;;;;19.61;66.60;100717.69;5035636;28;46030;-84
2021/07/13 02:27:19;;;;;;;;;14.00;12.75;;;;;19.65;66.72;100719.47;5036248;28;45340;-84
2021/07/13 02:29:56;;;;;;;;;16.00;13.75;;;;;19.66;66.81;100702.84;5036160;28;45290;-84
2021/07/13 02:32:27;;;;;;;;;14.00;11.50;;;;;19.69;66.64;100689.75;5036486;28;45312;-84
2021/07/13 02:34:56;;;;;;;;;12.00;10.25;;;;;19.68;66.68;100698.50;5035540;28;45340;-84
2021/07/13 02:37:25;;;;;;;;;10.00;8.50;;;;;19.63;66.68;100695.84;5035815;28;45282;-84
2021/07/13 02:39:51;;;;;;;;;10.75;9.50;;;;;19.64;66.65;100709.84;5035787;28;45364;-84
2021/07/13 02:42:22;;;;;;;;;11.75;9.75;;;;;19.62;66.33;100714.19;5018368;28;45566;-83
2021/07/13 02:44:49;;;;;;;;;12.25;10.00;;;;;19.63;66.89;100718.59;5034812;28;47568;-84
2021/07/13 02:47:16;;;;;;;;;12.25;9.25;;;;;19.63;66.90;100718.59;5035974;28;45371;-84
2021/07/13 02:49:46;;;;;;;;;11.25;10.75;;;;;19.61;66.33;100709.81;5043436;28;45318;-84
2021/07/13 02:52:24;;;;;;;;;13.25;12.50;;;;;19.63;66.77;100710.72;5041634;28;45230;-84
2021/07/13 02:54:59;;;;;;;;;13.75;12.50;;;;;19.59;66.26;100714.22;5038167;28;46667;-83
2021/07/13 02:57:26;;;;;;;;;15.25;12.75;;;;;19.58;66.75;100709.81;5035336;28;45424;-84
2021/07/13 02:59:53;;;;;;;;;12.25;10.75;;;;;19.55;67.18;100709.78;5039337;28;45484;-85
2021/07/13 03:02:21;;;;;;;;;10.00;9.75;;;;;19.56;66.60;100722.06;5039431;28;45408;-84
2021/07/13 03:04:47;;;;;;;;;10.25;9.50;;;;;19.59;66.93;100716.84;5039656;28;45374;-83
2021/07/13 03:07:13;;;;;;;;;10.00;9.75;;;;;19.58;66.45;100718.56;5038960;28;45616;-84
2021/07/13 03:09:39;;;;;;;;;11.25;9.75;;;;;19.60;66.65;100715.94;5039888;28;45501;-83
2021/07/13 03:12:15;;;;;;;;;6.25;5.75;;;;;19.59;66.66;100711.59;5039491;28;45419;-83
2021/07/13 03:14:44;;;;;;;;;10.75;9.75;;;;;19.58;66.72;100715.06;5039086;28;45399;-83
2021/07/13 03:17:16;;;;;;;;;15.50;13.25;;;;;19.54;66.88;100710.66;5039153;28;45239;-84
2021/07/13 03:19:42;;;;;;;;;13.50;11.00;;;;;19.57;67.27;100737.81;5021378;28;45422;-84
2021/07/13 03:22:17;;;;;;;;;11.00;10.00;;;;;19.60;67.17;100744.81;5039019;28;45391;-84
2021/07/13 03:24:43;;;;;;;;;12.25;11.00;;;;;19.60;67.20;100729.06;5038945;28;45848;-84
2021/07/13 03:27:10;;;;;;;;;11.25;9.75;;;;;19.53;67.34;100730.81;5037784;28;45882;-84
2021/07/13 03:29:38;;;;;;;;;14.00;12.50;;;;;19.51;67.17;100713.25;5040079;28;45268;-84
2021/07/13 03:32:05;;;;;;;;;12.25;9.75;;;;;19.49;67.42;100705.38;5040215;28;45213;-84
2021/07/13 03:34:31;;;;;;;;;14.75;12.75;;;;;19.48;67.42;100709.78;5040079;28;46379;-84
2021/07/13 03:36:57;;;;;;;;;11.00;9.50;;;;;19.43;67.22;100706.22;5038493;28;45445;-84
2021/07/13 03:39:25;;;;;;;;;16.50;12.50;;;;;19.44;67.79;100702.72;5038906;28;45453;-84
2021/07/13 03:41:51;;;;;;;;;15.25;13.25;;;;;19.44;67.62;100700.09;5038555;28;45519;-84
2021/07/13 03:44:16;;;;;;;;;10.25;9.75;;;;;19.43;67.62;100700.09;5038635;28;46350;-84
2021/07/13 03:46:42;;;;;;;;;14.75;11.75;;;;;19.35;67.35;100694.78;5038485;28;45315;-84
2021/07/13 03:49:09;;;;;;;;;11.75;10.25;;;;;19.31;67.71;100686.03;5038977;28;45299;-84
2021/07/13 03:51:36;;;;;;;;;13.00;11.75;;;;;19.37;67.99;100700.03;5038787;28;45420;-84
2021/07/13 03:54:03;;;;;;;;;13.00;11.25;;;;;19.32;67.54;100690.41;5038029;28;46476;-85
2021/07/13 03:56:29;;;;;;;;;14.75;12.75;;;;;19.36;68.16;100699.19;5038287;28;45242;-85
2021/07/13 03:58:55;;;;;;;;;16.00;14.75;;;;;19.33;67.92;100702.63;5038408;28;45412;-85
2021/07/13 04:01:21;;;;;;;;;13.75;12.50;;;;;19.40;67.84;100710.56;5037124;28;45537;-84
2021/07/13 04:03:47;;;;;;;;;16.75;12.25;;;;;19.40;67.80;100715.81;5038265;28;46269;-85
2021/07/13 04:06:13;;;;;;;;;19.25;15.50;;;;;19.41;67.63;100713.19;5037927;28;45363;-85
2021/07/13 04:08:39;;;;;;;;;15.50;13.75;;;;;19.40;68.02;100706.19;5041823;28;45251;-85
2021/07/13 04:11:05;;;;;;;;;13.00;11.25;;;;;19.40;67.67;100702.69;5046534;28;45525;-84
2021/07/13 04:13:30;;;;;;;;;16.25;15.75;;;;;19.42;67.66;100703.59;5044632;28;45352;-85
2021/07/13 04:15:56;;;;;;;;;14.75;13.50;;;;;19.37;68.01;100708.81;5040890;28;45335;-86
2021/07/13 04:18:22;;;;;;;;;14.75;13.50;;;;;19.40;68.10;100706.19;5038189;28;45382;-85
2021/07/13 04:20:47;;;;;;;;;14.00;13.25;;;;;19.37;68.32;100707.91;5038415;28;45570;-85
2021/07/13 04:23:13;;;;;;;;;18.25;14.75;;;;;19.38;67.94;100709.69;5019338;28;46870;-86
2021/07/13 04:25:39;;;;;;;;;17.75;15.50;;;;;19.40;68.03;100715.81;5019837;28;45521;-87
2021/07/13 04:28:04;;;;;;;;;19.25;15.00;;;;;19.40;67.87;100702.69;5037843;28;45301;-85
2021/07/13 04:30:31;;;;;;;;;19.50;16.75;;;;;19.43;68.14;100718.47;5038345;28;45275;-86
2021/07/13 04:32:57;;;;;;;;;16.50;15.00;;;;;19.37;68.14;100707.91;5036413;28;47133;-86
2021/07/13 04:35:22;;;;;;;;;18.50;16.00;;;;;19.38;68.45;100705.31;5037749;28;45325;-86
2021/07/13 04:37:48;;;;;;;;;16.50;16.25;;;;;19.44;68.42;100709.72;5038633;28;45406;-86
2021/07/13 04:40:14;;;;;;;;;15.25;13.75;;;;;19.40;67.86;100703.56;5038372;28;45241;-86
2021/07/13 04:42:41;;;;;;;;;15.75;15.25;;;;;19.40;68.25;100705.31;5019943;28;47490;-86
2021/07/13 04:45:08;;;;;;;;;18.75;16.75;;;;;19.42;68.44;100704.47;5019682;28;45332;-86
2021/07/13 04:47:33;;;;;;;;;15.50;15.00;;;;;19.42;68.04;100712.34;5021218;28;45333;-86
2021/07/13 04:49:59;;;;;;;;;17.50;16.25;;;;;19.41;68.05;100721.06;5045433;28;45403;-85
2021/07/13 04:52:25;;;;;;;;;18.00;17.00;;;;;19.37;68.36;100705.28;5045835;28;45265;-86
2021/07/13 04:54:50;;;;;;;;;13.25;13.25;;;;;19.35;68.18;100694.78;5026542;28;44814;-86
2021/07/13 04:57:16;;;;;;;;;14.75;14.25;;;;;19.40;68.22;100705.31;5028272;28;45308;-85
2021/07/13 04:59:41;;;;;;;;;21.50;15.50;;;;;19.45;67.51;100708.84;5044088;28;45595;-85
2021/07/13 05:02:07;;;;;;;;;16.75;15.50;;;;;19.47;67.59;100708.00;5019226;28;48051;-86
2021/07/13 05:04:33;;;;;;;;;13.75;13.75;;;;;19.47;67.91;100708.00;5037992;28;45755;-87
2021/07/13 05:06:59;;;;;;;;;17.50;14.25;;;;;19.44;67.89;100710.59;5037519;28;45242;-86
2021/07/13 05:09:26;;;;;;;;;19.75;15.00;;;;;19.47;67.96;100717.63;5037773;28;45356;-84
2021/07/13 05:11:51;;;;;;;;;19.25;18.25;;;;;19.44;67.98;100720.22;5019099;28;45371;-86
2021/07/13 05:14:17;;;;;;;;;15.25;13.50;;;;;19.41;67.88;100710.56;5036212;28;45454;-84
2021/07/13 05:16:43;;;;;;;;;17.50;16.75;;;;;19.43;68.19;100716.72;5037372;28;45429;-84
2021/07/13 05:19:10;;;;;;;;;14.50;14.00;;;;;19.48;68.44;100725.53;5019610;28;45478;-85
2021/07/13 05:21:36;;;;;;;;;20.00;15.00;;;;;19.48;68.20;100717.66;5037136;28;45503;-85
2021/07/13 05:24:02;;;;;;;;;15.75;13.50;;;;;19.46;67.95;100715.84;5037034;28;45392;-86
2021/07/13 05:26:28;;;;;;;;;17.75;17.75;;;;;19.52;68.03;100715.00;5037088;28;45337;-85
2021/07/13 05:28:54;;;;;;;;;15.75;15.00;;;;;19.55;68.26;100721.16;5021124;28;45541;-83
2021/07/13 05:31:20;;;;;;;;;18.00;15.00;;;;;19.53;67.86;100719.41;5042660;28;45757;-83
2021/07/13 05:33:45;;;;;;;;;17.75;14.50;;;;;19.54;67.95;100744.78;5025649;28;45340;-85
2021/07/13 05:36:11;;;;;;;;;18.50;15.25;;;;;19.46;67.82;100735.13;5040658;28;45438;-85
2021/07/13 05:38:36;;;;;;;;;15.25;14.25;;;;;19.43;68.25;100727.22;5039858;28;45366;-84
2021/07/13 05:41:02;;;;;;;;;19.50;16.75;;;;;19.43;68.54;100734.25;5038350;28;45318;-85
2021/07/13 05:43:28;;;;;;;;;13.25;13.25;;;;;19.41;68.30;100734.22;5035976;28;45440;-84
2021/07/13 05:45:53;;;;;;;;;22.75;18.75;;;;;19.45;68.50;100741.25;5037173;28;45725;-85
2021/07/13 05:48:19;;;;;;;;;15.25;14.50;;;;;19.47;67.90;100742.16;5034876;28;45482;-84
2021/07/13 05:50:47;;;;;;;;;18.75;16.25;;;;;19.48;67.99;100743.91;5033361;28;45509;-84
2021/07/13 05:53:13;;;;;;;;;15.25;15.25;;;;;19.49;68.47;100752.66;5035589;28;45452;-84
2021/07/13 05:55:38;;;;;;;;;22.00;18.50;;;;;19.52;67.96;100747.44;5036262;28;45482;-84
2021/07/13 05:58:04;;;;;;;;;23.25;17.50;;;;;19.48;68.09;100746.53;5035776;28;45443;-84
2021/07/13 06:00:29;;;;;;;;;17.00;14.75;;;;;19.50;67.83;100746.53;5035629;28;45365;-83
2021/07/13 06:02:55;;;;;;;;;18.25;17.50;;;;;19.49;67.90;100740.38;5034727;28;45597;-84
2021/07/13 06:05:20;;;;;;;;;15.25;14.00;;;;;19.55;67.85;100742.16;5017062;28;45404;-83
2021/07/13 06:07:50;;;;;;;;;17.75;17.00;;;;;19.60;67.73;100744.81;5020443;28;45400;-84
2021/07/13 06:10:19;;;;;;;;;17.25;14.75;;;;;19.66;68.12;100752.75;5047622;28;45284;-83
2021/07/13 06:12:45;;;;;;;;;19.00;16.75;;;;;19.65;67.65;100743.13;5045622;28;45388;-87
2021/07/13 06:15:11;;;;;;;;;16.25;15.00;;;;;19.68;67.57;100751.03;5047413;28;45456;-86
2021/07/13 06:17:40;;;;;;;;;18.25;16.00;;;;;19.66;67.49;100739.63;5056948;28;45285;-83
2021/07/13 06:20:06;;;;;;;;;16.00;14.00;;;;;19.68;67.55;100739.63;5044649;28;45339;-81
2021/07/13 06:22:32;;;;;;;;;19.50;17.00;;;;;19.62;67.33;100728.22;5035952;28;45351;-89
2021/07/13 06:24:58;;;;;;;;;18.50;16.75;;;;;19.63;67.99;100734.34;5018118;28;45527;-85
2021/07/13 06:27:24;;;;;;;;;17.25;16.25;;;;;19.57;67.97;100740.44;5036307;28;45511;-82
2021/07/13 06:29:49;;;;;;;;;16.50;15.50;;;;;19.55;67.76;100736.06;5035568;28;45336;-85
2021/07/13 06:32:16;;;;;;;;;20.75;17.25;;;;;19.56;68.28;100740.44;5034963;28;45556;-82
2021/07/13 06:34:42;;;;;;;;;24.00;18.50;;;;;19.60;67.93;100747.44;5035776;28;45487;-82
2021/07/13 06:37:07;;;;;;;;;23.75;20.25;;;;;19.60;67.80;100748.34;5035691;28;45435;-85
2021/07/13 06:39:33;;;;;;;;;27.75;24.25;;;;;19.58;68.12;100739.56;5035142;28;45522;-84
2021/07/13 06:41:58;;;;;;;;;23.25;18.00;;;;;19.63;68.01;100742.22;5035652;28;45303;-85
2021/07/13 06:44:24;;;;;;;;;21.00;17.50;;;;;19.68;67.97;100744.88;5018545;28;45442;-85
2021/07/13 06:46:49;;;;;;;;;25.00;20.75;;;;;19.73;67.76;100743.16;5016248;28;45552;-85
2021/07/13 06:49:15;;;;;;;;;18.25;17.50;;;;;19.78;67.45;100738.81;5020162;28;45526;-84
2021/07/13 06:51:41;;;;;;;;;21.50;20.25;;;;;19.80;67.73;100729.19;5041366;28;45465;-84
2021/07/13 06:54:07;;;;;;;;;27.50;24.00;;;;;19.78;67.44;100730.94;5040214;28;45350;-85
2021/07/13 06:56:32;;;;;;;;;19.50;19.00;;;;;19.76;67.97;100737.94;5037396;28;45266;-83
2021/07/13 06:58:58;;;;;;;;;24.25;20.00;;;;;19.75;67.85;100744.94;5034213;28;46163;-83
2021/07/13 07:01:23;;;;;;;;;24.75;18.25;;;;;19.67;68.48;100719.47;5034748;28;45398;-84
2021/07/13 07:03:49;;;;;;;;;25.25;21.50;;;;;19.68;68.15;100721.25;5034523;28;45416;-86
2021/07/13 07:06:15;;;;;;;;;26.25;18.25;;;;;19.69;68.38;100723.00;5042673;28;45700;-86
2021/07/13 07:08:40;;;;;;;;;22.00;17.25;;;;;19.70;68.23;100730.91;5030031;28;46557;-84
2021/07/13 07:11:06;;;;;;;;;26.50;20.50;;;;;19.68;68.25;100735.28;5034040;28;45355;-85
2021/07/13 07:13:32;;;;;;;;;22.25;18.75;;;;;19.70;68.14;100735.28;5035354;28;45316;-84
2021/07/13 07:15:59;;;;;;;;;25.50;21.25;;;;;19.70;68.20;100725.66;5036091;28;45590;-84
2021/07/13 07:18:24;;;;;;;;;29.50;21.50;;;;;19.69;68.29;100721.28;5046052;28;47887;-85
2021/07/13 07:20:50;;;;;;;;;24.00;19.75;;;;;19.65;68.69;100707.22;5034266;28;45423;-84
2021/07/13 07:23:15;;;;;;;;;18.75;17.50;;;;;19.63;68.32;100716.84;5023403;28;45920;-85
2021/07/13 07:25:41;;;;;;;;;21.00;18.75;;;;;19.60;68.97;100703.69;5030766;28;45361;-88
2021/07/13 07:28:10;;;;;;;;;20.25;17.50;;;;;19.62;68.33;100706.31;5035760;28;46201;-87
2021/07/13 07:30:36;;;;;;;;;21.25;18.25;;;;;19.67;68.62;100695.84;5039906;28;45459;-87
2021/07/13 07:33:02;;;;;;;;;21.50;19.00;;;;;19.70;68.60;100702.00;5022520;28;45465;-86
2021/07/13 07:35:29;;;;;;;;;24.00;17.25;;;;;19.76;68.50;100709.06;5042811;28;45489;-86
2021/07/13 07:37:54;;;;;;;;;20.50;18.50;;;;;19.80;68.56;100706.44;5033789;28;47169;-85
2021/07/13 07:40:21;;;;;;;;;24.25;19.75;;;;;19.80;67.90;100705.56;5035288;28;45386;-86
2021/07/13 07:42:49;;;;;;;;;22.00;18.25;;;;;19.91;68.30;100713.53;5035532;28;45301;-86
2021/07/13 07:45:15;;;;;;;;;22.75;19.25;;;;;19.95;68.17;100717.91;5039187;28;45499;-86
2021/07/13 07:47:41;;;;;;;;;25.00;19.25;;;;;19.93;68.16;100724.91;5020511;28;47735;-86
2021/07/13 07:50:08;;;;;;;;;25.00;20.25;;;;;20.00;68.10;100738.94;5038291;28;45321;-86
2021/07/13 07:52:34;;;;;;;;;22.50;17.75;;;;;20.00;67.76;100737.22;5037287;28;45570;-87
2021/07/13 07:55:00;;;;;;;;;23.25;21.00;;;;;19.95;67.79;100733.69;5037001;28;45380;-86
2021/07/13 07:57:26;;;;;;;;;21.00;20.75;;;;;19.91;68.53;100734.56;5038299;28;45353;-86
2021/07/13 07:59:52;;;;;;;;;24.00;17.75;;;;;19.86;68.25;100738.88;5038219;28;45334;-85
2021/07/13 08:02:17;;;;;;;;;20.75;18.00;;;;;19.87;68.34;100749.41;5037344;28;45305;-85
2021/07/13 08:04:43;;;;;;;;;21.50;14.25;;;;;19.83;68.50;100747.59;5038991;28;45498;-85
2021/07/13 08:07:09;;;;;;;;;26.50;18.50;;;;;19.88;68.65;100742.41;5040056;28;45530;-85
2021/07/13 08:09:35;;;;;;;;;25.25;19.75;;;;;19.90;69.01;100744.16;5041050;28;45843;-85
2021/07/13 08:12:00;;;;;;;;;18.00;15.25;;;;;19.92;67.75;100746.81;5046499;28;45437;-86
2021/07/13 08:14:26;;;;;;;;;19.00;17.50;;;;;19.95;68.13;100744.19;5042509;28;45353;-85
2021/07/13 08:16:53;;;;;;;;;22.50;20.75;;;;;20.02;68.03;100753.88;5040444;28;45580;-90
2021/07/13 08:19:19;;;;;;;;;19.00;15.50;;;;;20.05;67.93;100747.75;5040609;28;45465;-84
2021/07/13 08:21:45;;;;;;;;;18.00;14.75;;;;;20.10;67.64;100746.91;5023815;28;45516;-93
2021/07/13 08:24:11;;;;;;;;;19.50;17.50;;;;;20.13;67.95;100751.28;5036876;28;45510;-86
2021/07/13 08:26:38;;;;;;;;;22.00;14.75;;;;;20.13;67.62;100743.41;5037452;28;46221;-86
2021/07/13 08:29:04;;;;;;;;;22.00;18.50;;;;;20.13;67.63;100746.03;5036269;28;45893;-88
2021/07/13 08:31:30;;;;;;;;;22.50;20.00;;;;;20.19;67.42;100753.06;5037132;28;45463;-86
2021/07/13 08:33:56;;;;;;;;;20.00;16.50;;;;;20.22;67.57;100761.84;5036784;28;45573;-86
2021/07/13 08:36:22;;;;;;;;;15.75;14.50;;;;;20.22;67.87;100761.84;5038172;28;46126;-86
2021/07/13 08:38:48;;;;;;;;;12.75;12.00;;;;;20.22;68.30;100764.47;5020024;28;45333;-86
2021/07/13 08:41:14;;;;;;;;;17.75;14.75;;;;;20.22;68.21;100753.09;5037098;28;45420;-86
2021/07/13 08:43:40;;;;;;;;;17.00;16.00;;;;;20.18;67.96;100735.53;5038145;28;45482;-85
2021/07/13 08:46:06;;;;;;;;;18.25;17.50;;;;;20.28;68.46;100746.97;5019564;28;47650;-86
2021/07/13 08:48:33;;;;;;;;;16.75;15.50;;;;;20.26;68.20;100744.31;5020822;28;45356;-86
2021/07/13 08:51:01;;;;;;;;;18.00;16.25;;;;;20.32;68.44;100751.34;5044004;28;45250;-86
2021/07/13 08:53:29;;;;;;;;;18.25;15.25;;;;;20.39;68.19;100758.41;5027770;28;45451;-85
2021/07/13 08:55:55;;;;;;;;;18.00;15.25;;;;;20.48;68.37;100765.44;5025375;28;47095;-85
2021/07/13 08:58:21;;;;;;;;;19.50;15.75;;;;;20.50;68.17;100753.16;5041397;28;45334;-85
2021/07/13 09:00:48;;;;;;;;;18.25;16.50;;;;;20.47;68.07;100747.88;5038363;28;45345;-89
2021/07/13 09:03:19;;;;;;;;;17.25;15.50;;;;;20.51;68.08;100754.91;5037967;28;45626;-86
2021/07/13 09:05:47;;;;;;;;;19.00;18.00;;;;;20.53;68.69;100755.81;5037972;28;45413;-86
2021/07/13 09:08:24;;;;;;;;;16.75;16.75;;;;;20.55;67.97;100762.81;5031853;28;45903;-86
2021/07/13 09:11:14;;;;;;;;;18.50;17.50;;;;;20.59;67.93;100755.81;5019183;28;45552;-85
2021/07/13 09:13:48;;;;;;;;;17.50;15.25;;;;;20.60;67.99;100761.97;5037919;28;45305;-87
2021/07/13 09:16:19;;;;;;;;;19.75;16.75;;;;;20.57;68.23;100762.84;5037343;28;45773;-86
2021/07/13 09:18:47;;;;;;;;;15.00;12.25;;;;;20.52;68.55;100764.56;5038689;28;45241;-85
2021/07/13 09:21:16;;;;;;;;;20.50;17.00;;;;;20.51;68.25;100773.34;5053265;28;45412;-86
2021/07/13 09:24:01;;;;;;;;;18.50;15.50;;;;;20.52;67.99;100773.31;5040880;28;45606;-86
2021/07/13 09:26:42;;;;;;;;;20.00;18.25;;;;;20.53;68.25;100779.47;5023447;28;47879;-86
2021/07/13 09:29:25;;;;;;;;;18.00;17.00;;;;;20.46;67.97;100775.09;5041617;28;45323;-87
2021/07/13 09:31:51;;;;;;;;;20.75;16.50;;;;;20.38;67.72;100777.69;5046559;28;45376;-87
2021/07/13 09:34:21;;;;;;;;;17.50;14.25;;;;;20.33;68.13;100771.50;5035551;28;45438;-86
2021/07/13 09:36:51;;;;;;;;;22.00;18.75;;;;;20.36;68.60;100793.44;5045325;28;46623;-88
2021/07/13 09:39:22;;;;;;;;;19.50;18.25;;;;;20.30;69.33;100785.53;5022881;28;45296;-90
2021/07/13 09:41:55;;;;;;;;;17.75;17.25;;;;;20.29;70.04;100791.66;5039720;28;45372;-87
2021/07/13 09:44:22;;;;;;;;;18.75;14.75;;;;;20.27;69.62;100785.50;5020500;28;45516;-90
2021/07/13 09:46:49;;;;;;;;;14.50;13.50;;;;;20.29;70.41;100772.41;5038431;28;45297;-89
2021/07/13 09:49:27;;;;;;;;;21.50;17.75;;;;;20.32;70.32;100780.28;5028712;28;46031;-89
2021/07/13 09:52:04;;;;;;;;;21.50;17.75;;;;;20.37;70.38;100784.69;5026414;28;45452;-91
2021/07/13 09:54:34;;;;;;;;;18.25;15.00;;;;;20.47;70.83;100789.97;5025042;28;45277;-89
2021/07/13 09:57:15;;;;;;;;;18.50;16.00;;;;;20.56;70.63;100788.25;5047792;28;47792;-91
2021/07/13 09:59:42;;;;;;;;;16.75;16.75;;;;;20.63;70.67;100796.16;5025152;28;45285;-91
2021/07/13 10:02:10;;;;;;;;;12.25;8.00;;;;;20.63;70.02;100789.16;5025484;28;45226;-86
2021/07/13 10:04:37;;;;;;;;;19.50;18.25;;;;;20.67;70.08;100792.66;5026167;28;45367;-89
2021/07/13 10:07:08;;;;;;;;;18.25;17.25;;;;;20.71;69.43;100789.19;5040168;28;47551;-89
2021/07/13 10:09:42;;;;;;;;;16.75;16.50;;;;;20.70;70.15;100798.81;5041989;28;45762;-89
2021/07/13 10:12:09;;;;;;;;;20.25;15.50;;;;;20.71;69.64;100790.03;5033547;28;45451;-88
2021/07/13 10:14:38;;;;;;;;;14.75;13.50;;;;;20.76;69.96;100790.09;5055583;28;45300;-88
2021/07/13 10:17:06;;;;;;;;;20.25;15.50;;;;;20.82;69.71;100789.22;5049905;28;47796;-90
2021/07/13 10:19:32;;;;;;;;;19.00;16.25;;;;;20.88;69.64;100786.63;5023040;28;45273;-88
2021/07/13 10:22:01;;;;;;;;;18.75;15.75;;;;;20.93;70.10;100787.50;5038437;28;45333;-88
2021/07/13 10:24:27;;;;;;;;;19.00;15.75;;;;;20.94;69.63;100798.91;5036044;28;45704;-88
2021/07/13 10:26:54;;;;;;;;;19.75;18.50;;;;;20.94;69.42;100793.66;5035846;28;45404;-89
2021/07/13 10:29:32;;;;;;;;;19.00;15.75;;;;;20.90;69.25;100805.03;5019318;28;45976;-90
2021/07/13 10:32:06;;;;;;;;;17.50;16.50;;;;;20.78;69.60;100798.88;5018552;28;45384;-89
2021/07/13 10:34:53;;;;;;;;;17.50;14.00;;;;;20.76;69.47;100811.13;5020300;28;45464;-88
2021/07/13 10:37:40;;;;;;;;;20.00;16.25;;;;;20.68;69.31;100797.06;5016744;28;45561;-92
2021/07/13 10:40:15;;;;;;;;;16.00;12.75;;;;;20.64;69.90;100797.91;5044330;28;45922;-85
2021/07/13 10:42:43;;;;;;;;;15.00;14.00;;;;;20.73;70.18;100811.97;5039375;28;45402;-92
2021/07/13 10:45:29;;;;;;;;;21.50;18.00;;;;;20.63;69.49;100791.78;5041014;28;45587;-92
2021/07/13 10:48:13;;;;;;;;;18.75;17.75;;;;;20.72;69.46;100798.84;5020963;28;48084;-90
2021/07/13 10:50:49;;;;;;;;;21.75;20.50;;;;;20.76;69.79;100815.53;5041006;28;45846;-88
2021/07/13 10:53:45;;;;;;;;;17.75;17.00;;;;;20.75;70.45;100813.78;5047063;28;45352;-92
2021/07/13 10:56:17;;;;;;;;;16.50;15.00;;;;;20.74;70.47;100805.00;5047063;28;45412;-90
2021/07/13 10:58:45;;;;;;;;;19.00;16.25;;;;;20.75;70.83;100804.13;5042790;28;45286;-89
2021/07/13 11:01:32;;;;;;;;;23.50;18.50;;;;;20.78;70.94;100796.25;5037718;28;45296;-89
2021/07/13 11:04:00;;;;;;;;;18.00;17.00;;;;;20.81;70.45;100788.38;5019555;28;45235;-86
2021/07/13 11:06:41;;;;;;;;;17.25;15.50;;;;;20.87;70.63;100790.13;5018595;28;45542;-87
2021/07/13 11:09:36;;;;;;;;;21.50;18.50;;;;;20.97;69.99;100798.91;5035372;28;46293;-88
2021/07/13 11:12:10;;;;;;;;;14.50;12.00;;;;;20.97;70.06;100793.63;5015968;28;45303;-89
2021/07/13 11:14:50;;;;;;;;;21.50;20.00;;;;;21.03;70.45;100801.56;5034669;28;45221;-86
2021/07/13 11:17:21;;;;;;;;;21.25;20.25;;;;;21.11;70.99;100805.06;5036776;28;45336;-87